sensor_id;sensor_type;location;lat;lon;timestamp;P1;durP1;ratioP1;P2;durP2;ratioP2
31537;SDS011;18147;51.952;6.146;2023-04-15T00:01:20;12.60;;;7.15;;
31537;SDS011;18147;51.952;6.146;2023-04-15T00:03:46;10.98;;;6.63;;
31537;SDS011;18147;51.952;6.146;2023-04-15T00:06:12;15.48;;;7.63;;
31537;SDS011;18147;51.952;6.146;2023-04-15T00:08:39;13.25;;;7.20;;
31537;SDS011;18147;51.952;6.146;2023-04-15T00:11:05;17.08;;;7.88;;
31537;SDS011;18147;51.952;6.146;2023-04-15T00:13:31;13.45;;;7.30;;
31537;SDS011;18147;51.952;6.146;2023-04-15T00:15:58;13.50;;;7.13;;
31537;SDS011;18147;51.952;6.146;2023-04-15T00:18:23;11.75;;;7.07;;
31537;SDS011;18147;51.952;6.146;2023-04-15T00:20:49;13.23;;;7.40;;
31537;SDS011;18147;51.952;6.146;2023-04-15T00:23:15;19.10;;;7.63;;
31537;SDS011;18147;51.952;6.146;2023-04-15T00:25:40;14.18;;;7.25;;
31537;SDS011;18147;51.952;6.146;2023-04-15T00:28:06;13.23;;;7.45;;
31537;SDS011;18147;51.952;6.146;2023-04-15T00:30:33;12.38;;;7.97;;
31537;SDS011;18147;51.952;6.146;2023-04-15T00:32:59;15.35;;;7.85;;
31537;SDS011;18147;51.952;6.146;2023-04-15T00:35:26;16.33;;;6.88;;
31537;SDS011;18147;51.952;6.146;2023-04-15T00:37:52;15.45;;;7.43;;
31537;SDS011;18147;51.952;6.146;2023-04-15T00:40:19;17.40;;;8.00;;
31537;SDS011;18147;51.952;6.146;2023-04-15T00:42:45;18.40;;;7.68;;
31537;SDS011;18147;51.952;6.146;2023-04-15T00:45:12;17.48;;;7.40;;
31537;SDS011;18147;51.952;6.146;2023-04-15T00:47:40;12.40;;;7.93;;
31537;SDS011;18147;51.952;6.146;2023-04-15T00:50:07;12.68;;;7.28;;
31537;SDS011;18147;51.952;6.146;2023-04-15T00:52:33;15.40;;;8.15;;
31537;SDS011;18147;51.952;6.146;2023-04-15T00:54:59;17.67;;;8.20;;
31537;SDS011;18147;51.952;6.146;2023-04-15T00:57:25;12.07;;;7.35;;
31537;SDS011;18147;51.952;6.146;2023-04-15T00:59:53;14.85;;;7.30;;
31537;SDS011;18147;51.952;6.146;2023-04-15T01:02:20;13.43;;;9.02;;
31537;SDS011;18147;51.952;6.146;2023-04-15T01:04:47;14.27;;;8.63;;
31537;SDS011;18147;51.952;6.146;2023-04-15T01:07:12;17.13;;;7.93;;
31537;SDS011;18147;51.952;6.146;2023-04-15T01:09:38;13.27;;;8.05;;
31537;SDS011;18147;51.952;6.146;2023-04-15T01:12:05;16.23;;;8.45;;
31537;SDS011;18147;51.952;6.146;2023-04-15T01:14:33;11.93;;;8.20;;
31537;SDS011;18147;51.952;6.146;2023-04-15T01:16:58;18.55;;;7.07;;
31537;SDS011;18147;51.952;6.146;2023-04-15T01:19:25;15.30;;;8.13;;
31537;SDS011;18147;51.952;6.146;2023-04-15T01:21:51;15.40;;;7.25;;
31537;SDS011;18147;51.952;6.146;2023-04-15T01:24:17;16.38;;;7.72;;
31537;SDS011;18147;51.952;6.146;2023-04-15T01:26:43;12.75;;;7.75;;
31537;SDS011;18147;51.952;6.146;2023-04-15T01:29:09;11.68;;;7.80;;
31537;SDS011;18147;51.952;6.146;2023-04-15T01:31:35;14.38;;;8.43;;
31537;SDS011;18147;51.952;6.146;2023-04-15T01:34:01;15.70;;;7.57;;
31537;SDS011;18147;51.952;6.146;2023-04-15T01:36:27;13.50;;;7.35;;
31537;SDS011;18147;51.952;6.146;2023-04-15T01:38:53;12.57;;;6.97;;
31537;SDS011;18147;51.952;6.146;2023-04-15T01:41:24;14.18;;;7.68;;
31537;SDS011;18147;51.952;6.146;2023-04-15T01:43:51;13.35;;;7.60;;
31537;SDS011;18147;51.952;6.146;2023-04-15T01:46:17;11.70;;;7.70;;
31537;SDS011;18147;51.952;6.146;2023-04-15T01:48:43;15.27;;;8.02;;
31537;SDS011;18147;51.952;6.146;2023-04-15T01:51:09;13.27;;;7.70;;
31537;SDS011;18147;51.952;6.146;2023-04-15T01:53:35;14.60;;;7.72;;
31537;SDS011;18147;51.952;6.146;2023-04-15T01:56:01;16.38;;;7.97;;
31537;SDS011;18147;51.952;6.146;2023-04-15T01:58:27;11.30;;;7.38;;
31537;SDS011;18147;51.952;6.146;2023-04-15T02:00:53;18.13;;;7.93;;
31537;SDS011;18147;51.952;6.146;2023-04-15T02:03:18;15.63;;;7.35;;
31537;SDS011;18147;51.952;6.146;2023-04-15T02:05:45;11.85;;;7.57;;
31537;SDS011;18147;51.952;6.146;2023-04-15T02:08:10;19.50;;;8.10;;
31537;SDS011;18147;51.952;6.146;2023-04-15T02:10:37;20.15;;;8.65;;
31537;SDS011;18147;51.952;6.146;2023-04-15T02:13:04;17.23;;;8.23;;
31537;SDS011;18147;51.952;6.146;2023-04-15T02:15:30;21.58;;;8.95;;
31537;SDS011;18147;51.952;6.146;2023-04-15T02:17:58;13.50;;;7.70;;
31537;SDS011;18147;51.952;6.146;2023-04-15T02:20:25;16.48;;;8.30;;
31537;SDS011;18147;51.952;6.146;2023-04-15T02:22:50;12.73;;;7.38;;
31537;SDS011;18147;51.952;6.146;2023-04-15T02:25:16;16.30;;;8.35;;
31537;SDS011;18147;51.952;6.146;2023-04-15T02:27:42;11.07;;;8.23;;
31537;SDS011;18147;51.952;6.146;2023-04-15T02:30:11;19.45;;;8.95;;
31537;SDS011;18147;51.952;6.146;2023-04-15T02:32:37;16.90;;;8.30;;
31537;SDS011;18147;51.952;6.146;2023-04-15T02:35:06;18.83;;;8.77;;
31537;SDS011;18147;51.952;6.146;2023-04-15T02:37:34;14.55;;;8.00;;
31537;SDS011;18147;51.952;6.146;2023-04-15T02:42:32;18.30;;;8.60;;
31537;SDS011;18147;51.952;6.146;2023-04-15T02:44:59;17.98;;;8.80;;
31537;SDS011;18147;51.952;6.146;2023-04-15T02:47:29;17.42;;;8.82;;
31537;SDS011;18147;51.952;6.146;2023-04-15T02:49:55;24.58;;;9.00;;
31537;SDS011;18147;51.952;6.146;2023-04-15T02:52:23;13.18;;;8.10;;
31537;SDS011;18147;51.952;6.146;2023-04-15T02:54:48;20.33;;;8.75;;
31537;SDS011;18147;51.952;6.146;2023-04-15T02:57:14;14.70;;;8.45;;
31537;SDS011;18147;51.952;6.146;2023-04-15T02:59:40;16.67;;;8.02;;
31537;SDS011;18147;51.952;6.146;2023-04-15T03:02:05;22.42;;;8.57;;
31537;SDS011;18147;51.952;6.146;2023-04-15T03:04:32;16.92;;;8.57;;
31537;SDS011;18147;51.952;6.146;2023-04-15T03:06:58;20.15;;;9.00;;
31537;SDS011;18147;51.952;6.146;2023-04-15T03:09:25;22.15;;;9.65;;
31537;SDS011;18147;51.952;6.146;2023-04-15T03:11:53;15.68;;;8.05;;
31537;SDS011;18147;51.952;6.146;2023-04-15T03:14:19;16.52;;;9.10;;
31537;SDS011;18147;51.952;6.146;2023-04-15T03:16:46;21.38;;;8.93;;
31537;SDS011;18147;51.952;6.146;2023-04-15T03:19:16;17.95;;;8.75;;
31537;SDS011;18147;51.952;6.146;2023-04-15T03:21:43;15.43;;;8.82;;
31537;SDS011;18147;51.952;6.146;2023-04-15T03:24:09;20.77;;;9.15;;
31537;SDS011;18147;51.952;6.146;2023-04-15T03:26:35;17.45;;;9.68;;
31537;SDS011;18147;51.952;6.146;2023-04-15T03:29:07;16.35;;;10.27;;
31537;SDS011;18147;51.952;6.146;2023-04-15T03:31:33;17.98;;;9.85;;
31537;SDS011;18147;51.952;6.146;2023-04-15T03:33:59;17.80;;;9.73;;
31537;SDS011;18147;51.952;6.146;2023-04-15T03:36:29;16.42;;;9.00;;
31537;SDS011;18147;51.952;6.146;2023-04-15T03:39:01;21.23;;;9.95;;
31537;SDS011;18147;51.952;6.146;2023-04-15T03:41:28;20.27;;;12.60;;
31537;SDS011;18147;51.952;6.146;2023-04-15T03:43:57;19.63;;;9.15;;
31537;SDS011;18147;51.952;6.146;2023-04-15T03:46:23;18.90;;;9.70;;
31537;SDS011;18147;51.952;6.146;2023-04-15T03:48:50;20.35;;;10.27;;
31537;SDS011;18147;51.952;6.146;2023-04-15T03:51:16;28.48;;;10.80;;
31537;SDS011;18147;51.952;6.146;2023-04-15T03:53:42;16.85;;;10.32;;
31537;SDS011;18147;51.952;6.146;2023-04-15T03:56:08;22.98;;;10.82;;
31537;SDS011;18147;51.952;6.146;2023-04-15T03:58:33;22.98;;;11.95;;
31537;SDS011;18147;51.952;6.146;2023-04-15T04:01:00;20.10;;;10.15;;
31537;SDS011;18147;51.952;6.146;2023-04-15T04:03:34;23.95;;;11.32;;
31537;SDS011;18147;51.952;6.146;2023-04-15T04:06:06;20.00;;;11.57;;
31537;SDS011;18147;51.952;6.146;2023-04-15T04:08:33;19.80;;;11.50;;
31537;SDS011;18147;51.952;6.146;2023-04-15T04:10:58;22.15;;;10.20;;
31537;SDS011;18147;51.952;6.146;2023-04-15T04:13:24;23.75;;;9.98;;
31537;SDS011;18147;51.952;6.146;2023-04-15T04:15:50;19.73;;;10.85;;
31537;SDS011;18147;51.952;6.146;2023-04-15T04:18:16;25.52;;;11.15;;
31537;SDS011;18147;51.952;6.146;2023-04-15T04:20:41;21.75;;;11.07;;
31537;SDS011;18147;51.952;6.146;2023-04-15T04:23:07;22.50;;;11.45;;
31537;SDS011;18147;51.952;6.146;2023-04-15T04:25:33;18.08;;;11.32;;
31537;SDS011;18147;51.952;6.146;2023-04-15T04:27:59;23.27;;;12.00;;
31537;SDS011;18147;51.952;6.146;2023-04-15T04:30:25;21.10;;;10.45;;
31537;SDS011;18147;51.952;6.146;2023-04-15T04:32:57;24.08;;;11.48;;
31537;SDS011;18147;51.952;6.146;2023-04-15T04:35:31;23.08;;;11.15;;
31537;SDS011;18147;51.952;6.146;2023-04-15T04:37:59;23.77;;;12.13;;
31537;SDS011;18147;51.952;6.146;2023-04-15T04:40:26;22.00;;;10.48;;
31537;SDS011;18147;51.952;6.146;2023-04-15T04:42:52;20.58;;;10.75;;
31537;SDS011;18147;51.952;6.146;2023-04-15T04:45:21;22.60;;;12.63;;
31537;SDS011;18147;51.952;6.146;2023-04-15T04:47:50;23.65;;;12.88;;
31537;SDS011;18147;51.952;6.146;2023-04-15T04:50:17;22.48;;;11.05;;
31537;SDS011;18147;51.952;6.146;2023-04-15T04:52:44;24.70;;;11.05;;
31537;SDS011;18147;51.952;6.146;2023-04-15T04:55:15;23.17;;;12.38;;
31537;SDS011;18147;51.952;6.146;2023-04-15T04:57:47;25.92;;;12.20;;
31537;SDS011;18147;51.952;6.146;2023-04-15T05:00:12;22.52;;;11.88;;
31537;SDS011;18147;51.952;6.146;2023-04-15T05:02:38;23.63;;;11.82;;
31537;SDS011;18147;51.952;6.146;2023-04-15T05:05:05;23.17;;;12.18;;
31537;SDS011;18147;51.952;6.146;2023-04-15T05:07:33;23.88;;;11.68;;
31537;SDS011;18147;51.952;6.146;2023-04-15T05:09:58;22.10;;;11.30;;
31537;SDS011;18147;51.952;6.146;2023-04-15T05:12:24;20.88;;;11.32;;
31537;SDS011;18147;51.952;6.146;2023-04-15T05:14:50;28.20;;;12.60;;
31537;SDS011;18147;51.952;6.146;2023-04-15T05:17:16;28.98;;;13.20;;
31537;SDS011;18147;51.952;6.146;2023-04-15T05:19:41;23.23;;;13.02;;
31537;SDS011;18147;51.952;6.146;2023-04-15T05:22:07;29.60;;;13.20;;
31537;SDS011;18147;51.952;6.146;2023-04-15T05:24:33;19.73;;;11.52;;
31537;SDS011;18147;51.952;6.146;2023-04-15T05:26:58;26.00;;;13.48;;
31537;SDS011;18147;51.952;6.146;2023-04-15T05:29:26;28.73;;;13.02;;
31537;SDS011;18147;51.952;6.146;2023-04-15T05:31:51;23.77;;;13.25;;
31537;SDS011;18147;51.952;6.146;2023-04-15T05:34:17;27.45;;;13.13;;
31537;SDS011;18147;51.952;6.146;2023-04-15T05:36:43;25.10;;;12.05;;
31537;SDS011;18147;51.952;6.146;2023-04-15T05:39:09;23.00;;;12.00;;
31537;SDS011;18147;51.952;6.146;2023-04-15T05:41:35;22.98;;;11.45;;
31537;SDS011;18147;51.952;6.146;2023-04-15T05:44:01;23.95;;;12.23;;
31537;SDS011;18147;51.952;6.146;2023-04-15T05:46:27;25.67;;;12.07;;
31537;SDS011;18147;51.952;6.146;2023-04-15T05:48:52;24.63;;;12.40;;
31537;SDS011;18147;51.952;6.146;2023-04-15T05:51:18;22.45;;;11.30;;
31537;SDS011;18147;51.952;6.146;2023-04-15T05:53:44;24.38;;;12.32;;
31537;SDS011;18147;51.952;6.146;2023-04-15T05:56:10;24.70;;;12.90;;
31537;SDS011;18147;51.952;6.146;2023-04-15T05:58:35;28.40;;;12.18;;
31537;SDS011;18147;51.952;6.146;2023-04-15T06:01:01;23.27;;;12.10;;
31537;SDS011;18147;51.952;6.146;2023-04-15T06:03:27;20.45;;;11.45;;
31537;SDS011;18147;51.952;6.146;2023-04-15T06:05:53;18.08;;;11.45;;
31537;SDS011;18147;51.952;6.146;2023-04-15T06:08:20;18.05;;;10.20;;
31537;SDS011;18147;51.952;6.146;2023-04-15T06:10:45;18.52;;;11.35;;
31537;SDS011;18147;51.952;6.146;2023-04-15T06:13:11;20.75;;;10.63;;
31537;SDS011;18147;51.952;6.146;2023-04-15T06:15:37;17.33;;;9.88;;
31537;SDS011;18147;51.952;6.146;2023-04-15T06:18:03;24.73;;;10.82;;
31537;SDS011;18147;51.952;6.146;2023-04-15T06:20:29;22.92;;;10.98;;
31537;SDS011;18147;51.952;6.146;2023-04-15T06:22:56;25.02;;;11.35;;
31537;SDS011;18147;51.952;6.146;2023-04-15T06:25:21;24.27;;;10.48;;
31537;SDS011;18147;51.952;6.146;2023-04-15T06:27:48;19.25;;;11.05;;
31537;SDS011;18147;51.952;6.146;2023-04-15T06:30:13;18.58;;;10.65;;
31537;SDS011;18147;51.952;6.146;2023-04-15T06:32:39;18.02;;;11.25;;
31537;SDS011;18147;51.952;6.146;2023-04-15T06:35:05;25.73;;;11.15;;
31537;SDS011;18147;51.952;6.146;2023-04-15T06:37:31;23.02;;;11.32;;
31537;SDS011;18147;51.952;6.146;2023-04-15T06:39:57;19.73;;;10.60;;
31537;SDS011;18147;51.952;6.146;2023-04-15T06:42:23;20.70;;;11.00;;
31537;SDS011;18147;51.952;6.146;2023-04-15T06:44:48;17.35;;;10.60;;
31537;SDS011;18147;51.952;6.146;2023-04-15T06:47:14;18.88;;;11.18;;
31537;SDS011;18147;51.952;6.146;2023-04-15T06:49:42;22.25;;;10.93;;
31537;SDS011;18147;51.952;6.146;2023-04-15T06:52:10;19.85;;;11.35;;
31537;SDS011;18147;51.952;6.146;2023-04-15T06:54:36;19.58;;;10.60;;
31537;SDS011;18147;51.952;6.146;2023-04-15T06:57:05;20.50;;;11.20;;
31537;SDS011;18147;51.952;6.146;2023-04-15T06:59:31;20.52;;;10.77;;
31537;SDS011;18147;51.952;6.146;2023-04-15T07:01:57;18.73;;;10.98;;
31537;SDS011;18147;51.952;6.146;2023-04-15T07:04:23;22.08;;;10.80;;
31537;SDS011;18147;51.952;6.146;2023-04-15T07:06:48;20.90;;;11.13;;
31537;SDS011;18147;51.952;6.146;2023-04-15T07:09:14;22.05;;;11.20;;
31537;SDS011;18147;51.952;6.146;2023-04-15T07:11:39;22.58;;;11.07;;
31537;SDS011;18147;51.952;6.146;2023-04-15T07:14:05;17.92;;;11.02;;
31537;SDS011;18147;51.952;6.146;2023-04-15T07:16:31;24.20;;;12.02;;
31537;SDS011;18147;51.952;6.146;2023-04-15T07:18:57;19.65;;;11.05;;
31537;SDS011;18147;51.952;6.146;2023-04-15T07:21:24;21.42;;;11.38;;
31537;SDS011;18147;51.952;6.146;2023-04-15T07:23:49;23.23;;;12.45;;
31537;SDS011;18147;51.952;6.146;2023-04-15T07:26:16;16.20;;;8.77;;
31537;SDS011;18147;51.952;6.146;2023-04-15T07:28:43;21.77;;;11.82;;
31537;SDS011;18147;51.952;6.146;2023-04-15T07:31:10;20.83;;;12.20;;
31537;SDS011;18147;51.952;6.146;2023-04-15T07:33:36;18.23;;;10.57;;
31537;SDS011;18147;51.952;6.146;2023-04-15T07:36:02;19.67;;;11.07;;
31537;SDS011;18147;51.952;6.146;2023-04-15T07:38:27;18.60;;;10.65;;
31537;SDS011;18147;51.952;6.146;2023-04-15T07:40:54;18.58;;;10.85;;
31537;SDS011;18147;51.952;6.146;2023-04-15T07:43:20;22.13;;;10.50;;
31537;SDS011;18147;51.952;6.146;2023-04-15T07:45:46;21.17;;;12.45;;
31537;SDS011;18147;51.952;6.146;2023-04-15T07:48:12;18.10;;;9.48;;
31537;SDS011;18147;51.952;6.146;2023-04-15T07:50:38;20.60;;;8.80;;
31537;SDS011;18147;51.952;6.146;2023-04-15T07:53:03;19.90;;;9.65;;
31537;SDS011;18147;51.952;6.146;2023-04-15T07:55:30;17.70;;;10.48;;
31537;SDS011;18147;51.952;6.146;2023-04-15T07:57:57;17.65;;;10.10;;
31537;SDS011;18147;51.952;6.146;2023-04-15T08:00:23;17.15;;;10.10;;
31537;SDS011;18147;51.952;6.146;2023-04-15T08:02:49;18.23;;;10.05;;
31537;SDS011;18147;51.952;6.146;2023-04-15T08:05:17;17.85;;;9.68;;
31537;SDS011;18147;51.952;6.146;2023-04-15T08:07:44;18.33;;;9.82;;
31537;SDS011;18147;51.952;6.146;2023-04-15T08:10:11;18.30;;;8.75;;
31537;SDS011;18147;51.952;6.146;2023-04-15T08:12:36;16.05;;;8.65;;
31537;SDS011;18147;51.952;6.146;2023-04-15T08:15:03;17.52;;;7.85;;
31537;SDS011;18147;51.952;6.146;2023-04-15T08:20:05;12.45;;;7.68;;
31537;SDS011;18147;51.952;6.146;2023-04-15T08:22:31;14.57;;;8.65;;
31537;SDS011;18147;51.952;6.146;2023-04-15T08:24:57;12.68;;;7.13;;
31537;SDS011;18147;51.952;6.146;2023-04-15T08:27:23;13.00;;;8.38;;
31537;SDS011;18147;51.952;6.146;2023-04-15T08:29:50;12.98;;;7.38;;
31537;SDS011;18147;51.952;6.146;2023-04-15T08:32:15;16.48;;;7.40;;
31537;SDS011;18147;51.952;6.146;2023-04-15T08:34:41;11.82;;;7.57;;
31537;SDS011;18147;51.952;6.146;2023-04-15T08:37:07;16.67;;;8.32;;
31537;SDS011;18147;51.952;6.146;2023-04-15T08:39:33;11.70;;;7.07;;
31537;SDS011;18147;51.952;6.146;2023-04-15T08:42:00;10.38;;;6.63;;
31537;SDS011;18147;51.952;6.146;2023-04-15T08:44:33;12.50;;;6.93;;
31537;SDS011;18147;51.952;6.146;2023-04-15T08:47:01;11.65;;;6.97;;
31537;SDS011;18147;51.952;6.146;2023-04-15T08:49:28;11.65;;;6.28;;
31537;SDS011;18147;51.952;6.146;2023-04-15T08:51:58;11.27;;;6.63;;
31537;SDS011;18147;51.952;6.146;2023-04-15T08:54:25;9.50;;;6.13;;
31537;SDS011;18147;51.952;6.146;2023-04-15T08:56:52;10.85;;;6.93;;
31537;SDS011;18147;51.952;6.146;2023-04-15T08:59:20;12.85;;;6.40;;
31537;SDS011;18147;51.952;6.146;2023-04-15T09:01:46;12.38;;;6.57;;
31537;SDS011;18147;51.952;6.146;2023-04-15T09:04:16;11.27;;;6.03;;
31537;SDS011;18147;51.952;6.146;2023-04-15T09:06:42;8.30;;;5.15;;
31537;SDS011;18147;51.952;6.146;2023-04-15T09:09:08;8.20;;;4.82;;
31537;SDS011;18147;51.952;6.146;2023-04-15T09:11:34;8.07;;;5.22;;
31537;SDS011;18147;51.952;6.146;2023-04-15T09:14:01;12.00;;;5.07;;
31537;SDS011;18147;51.952;6.146;2023-04-15T09:16:28;10.70;;;5.30;;
31537;SDS011;18147;51.952;6.146;2023-04-15T09:18:59;8.98;;;5.53;;
31537;SDS011;18147;51.952;6.146;2023-04-15T09:21:25;11.77;;;4.85;;
31537;SDS011;18147;51.952;6.146;2023-04-15T09:23:57;11.38;;;5.15;;
31537;SDS011;18147;51.952;6.146;2023-04-15T09:26:32;8.02;;;4.72;;
31537;SDS011;18147;51.952;6.146;2023-04-15T09:29:06;7.57;;;5.25;;
31537;SDS011;18147;51.952;6.146;2023-04-15T09:31:42;10.32;;;5.18;;
31537;SDS011;18147;51.952;6.146;2023-04-15T09:34:07;9.40;;;5.13;;
31537;SDS011;18147;51.952;6.146;2023-04-15T09:39:18;10.07;;;5.32;;
31537;SDS011;18147;51.952;6.146;2023-04-15T09:41:45;8.57;;;4.38;;
31537;SDS011;18147;51.952;6.146;2023-04-15T09:44:26;8.25;;;4.45;;
31537;SDS011;18147;51.952;6.146;2023-04-15T09:46:54;8.88;;;4.40;;
31537;SDS011;18147;51.952;6.146;2023-04-15T09:49:20;6.80;;;4.35;;
31537;SDS011;18147;51.952;6.146;2023-04-15T09:51:47;6.97;;;4.53;;
31537;SDS011;18147;51.952;6.146;2023-04-15T09:54:17;8.95;;;5.70;;
31537;SDS011;18147;51.952;6.146;2023-04-15T09:59:13;9.85;;;5.25;;
31537;SDS011;18147;51.952;6.146;2023-04-15T10:01:39;8.10;;;4.80;;
31537;SDS011;18147;51.952;6.146;2023-04-15T10:04:07;10.48;;;5.07;;
31537;SDS011;18147;51.952;6.146;2023-04-15T10:06:34;9.75;;;4.65;;
31537;SDS011;18147;51.952;6.146;2023-04-15T10:09:00;5.65;;;3.67;;
31537;SDS011;18147;51.952;6.146;2023-04-15T10:11:29;9.85;;;4.95;;
31537;SDS011;18147;51.952;6.146;2023-04-15T11:18:32;3.10;;;1.10;;
31537;SDS011;18147;51.952;6.146;2023-04-15T11:20:59;6.38;;;1.48;;
31537;SDS011;18147;51.952;6.146;2023-04-15T11:26:16;1.33;;;1.10;;
31537;SDS011;18147;51.952;6.146;2023-04-15T11:36:04;0.98;;;0.90;;
31537;SDS011;18147;51.952;6.146;2023-04-15T11:40:37;3.55;;;0.90;;
31537;SDS011;18147;51.952;6.146;2023-04-15T11:48:17;4.18;;;0.90;;
31537;SDS011;18147;51.952;6.146;2023-04-15T11:53:47;11.90;;;1.58;;
31537;SDS011;18147;51.952;6.146;2023-04-15T11:58:46;3.78;;;1.52;;
31537;SDS011;18147;51.952;6.146;2023-04-15T12:01:18;5.28;;;1.20;;
31537;SDS011;18147;51.952;6.146;2023-04-15T12:03:46;1.42;;;0.98;;
31537;SDS011;18147;51.952;6.146;2023-04-15T12:14:06;2.65;;;1.45;;
31537;SDS011;18147;51.952;6.146;2023-04-15T12:16:54;3.90;;;1.23;;
31537;SDS011;18147;51.952;6.146;2023-04-15T12:19:34;2.47;;;1.20;;
31537;SDS011;18147;51.952;6.146;2023-04-15T12:22:16;5.22;;;1.40;;
31537;SDS011;18147;51.952;6.146;2023-04-15T13:38:19;6.50;;;2.80;;
31537;SDS011;18147;51.952;6.146;2023-04-15T13:40:45;3.55;;;1.60;;
31537;SDS011;18147;51.952;6.146;2023-04-15T13:43:11;6.00;;;3.67;;
31537;SDS011;18147;51.952;6.146;2023-04-15T13:45:36;5.95;;;3.22;;
31537;SDS011;18147;51.952;6.146;2023-04-15T13:48:03;18.83;;;4.00;;
31537;SDS011;18147;51.952;6.146;2023-04-15T13:50:29;6.32;;;2.30;;
31537;SDS011;18147;51.952;6.146;2023-04-15T13:52:55;3.42;;;1.52;;
31537;SDS011;18147;51.952;6.146;2023-04-15T13:55:21;8.98;;;3.50;;
31537;SDS011;18147;51.952;6.146;2023-04-15T13:57:46;3.45;;;3.05;;
31537;SDS011;18147;51.952;6.146;2023-04-15T14:00:12;2.95;;;1.88;;
31537;SDS011;18147;51.952;6.146;2023-04-15T14:02:39;2.25;;;1.77;;
31537;SDS011;18147;51.952;6.146;2023-04-15T14:05:08;3.05;;;1.80;;
31537;SDS011;18147;51.952;6.146;2023-04-15T14:07:34;3.17;;;1.75;;
31537;SDS011;18147;51.952;6.146;2023-04-15T14:10:01;3.70;;;2.25;;
31537;SDS011;18147;51.952;6.146;2023-04-15T14:12:30;3.17;;;2.20;;
31537;SDS011;18147;51.952;6.146;2023-04-15T14:14:59;4.47;;;1.55;;
31537;SDS011;18147;51.952;6.146;2023-04-15T14:17:24;5.93;;;1.90;;
31537;SDS011;18147;51.952;6.146;2023-04-15T14:19:50;8.13;;;6.47;;
31537;SDS011;18147;51.952;6.146;2023-04-15T14:22:16;5.63;;;4.43;;
31537;SDS011;18147;51.952;6.146;2023-04-15T14:24:43;9.27;;;6.57;;
31537;SDS011;18147;51.952;6.146;2023-04-15T14:27:10;4.85;;;3.15;;
31537;SDS011;18147;51.952;6.146;2023-04-15T14:29:37;3.22;;;1.90;;
31537;SDS011;18147;51.952;6.146;2023-04-15T14:32:04;3.67;;;2.22;;
31537;SDS011;18147;51.952;6.146;2023-04-15T14:34:32;9.15;;;4.53;;
31537;SDS011;18147;51.952;6.146;2023-04-15T14:36:58;4.53;;;2.40;;
31537;SDS011;18147;51.952;6.146;2023-04-15T14:39:23;5.13;;;2.75;;
31537;SDS011;18147;51.952;6.146;2023-04-15T14:41:49;5.95;;;3.30;;
31537;SDS011;18147;51.952;6.146;2023-04-15T14:44:14;3.40;;;2.97;;
31537;SDS011;18147;51.952;6.146;2023-04-15T14:46:40;9.02;;;4.90;;
31537;SDS011;18147;51.952;6.146;2023-04-15T14:49:06;8.95;;;4.88;;
31537;SDS011;18147;51.952;6.146;2023-04-15T14:51:32;7.18;;;2.90;;
31537;SDS011;18147;51.952;6.146;2023-04-15T14:53:57;5.60;;;2.88;;
31537;SDS011;18147;51.952;6.146;2023-04-15T14:56:23;6.55;;;3.10;;
31537;SDS011;18147;51.952;6.146;2023-04-15T14:58:48;4.03;;;2.72;;
31537;SDS011;18147;51.952;6.146;2023-04-15T15:01:17;5.47;;;2.85;;
31537;SDS011;18147;51.952;6.146;2023-04-15T15:03:44;5.82;;;3.90;;
31537;SDS011;18147;51.952;6.146;2023-04-15T15:06:10;10.18;;;3.33;;
31537;SDS011;18147;51.952;6.146;2023-04-15T15:08:35;13.43;;;5.35;;
31537;SDS011;18147;51.952;6.146;2023-04-15T15:11:01;9.15;;;3.15;;
31537;SDS011;18147;51.952;6.146;2023-04-15T15:13:27;12.32;;;4.60;;
31537;SDS011;18147;51.952;6.146;2023-04-15T15:15:53;7.28;;;3.05;;
31537;SDS011;18147;51.952;6.146;2023-04-15T15:18:19;12.20;;;4.32;;
31537;SDS011;18147;51.952;6.146;2023-04-15T15:20:44;9.23;;;3.95;;
31537;SDS011;18147;51.952;6.146;2023-04-15T15:23:10;9.00;;;3.22;;
31537;SDS011;18147;51.952;6.146;2023-04-15T15:25:36;7.35;;;3.08;;
31537;SDS011;18147;51.952;6.146;2023-04-15T15:28:05;12.13;;;3.55;;
31537;SDS011;18147;51.952;6.146;2023-04-15T15:30:33;6.55;;;3.40;;
31537;SDS011;18147;51.952;6.146;2023-04-15T15:33:00;7.75;;;3.60;;
31537;SDS011;18147;51.952;6.146;2023-04-15T15:35:26;9.63;;;3.33;;
31537;SDS011;18147;51.952;6.146;2023-04-15T15:37:52;19.05;;;3.42;;
31537;SDS011;18147;51.952;6.146;2023-04-15T15:40:19;10.20;;;3.00;;
31537;SDS011;18147;51.952;6.146;2023-04-15T15:42:48;8.85;;;3.00;;
31537;SDS011;18147;51.952;6.146;2023-04-15T15:45:15;11.32;;;3.65;;
31537;SDS011;18147;51.952;6.146;2023-04-15T15:47:41;6.15;;;2.88;;
31537;SDS011;18147;51.952;6.146;2023-04-15T15:50:08;9.80;;;3.47;;
31537;SDS011;18147;51.952;6.146;2023-04-15T15:52:34;8.18;;;2.88;;
31537;SDS011;18147;51.952;6.146;2023-04-15T15:55:00;10.35;;;3.42;;
31537;SDS011;18147;51.952;6.146;2023-04-15T15:57:26;9.52;;;2.55;;
31537;SDS011;18147;51.952;6.146;2023-04-15T15:59:52;8.80;;;2.80;;
31537;SDS011;18147;51.952;6.146;2023-04-15T16:02:17;6.35;;;2.97;;
31537;SDS011;18147;51.952;6.146;2023-04-15T16:04:43;13.02;;;2.55;;
31537;SDS011;18147;51.952;6.146;2023-04-15T16:07:11;4.20;;;2.00;;
31537;SDS011;18147;51.952;6.146;2023-04-15T16:09:39;11.32;;;2.45;;
31537;SDS011;18147;51.952;6.146;2023-04-15T16:12:06;8.13;;;2.28;;
31537;SDS011;18147;51.952;6.146;2023-04-15T16:14:32;8.45;;;2.72;;
31537;SDS011;18147;51.952;6.146;2023-04-15T16:16:58;8.95;;;2.20;;
31537;SDS011;18147;51.952;6.146;2023-04-15T16:19:24;4.30;;;1.60;;
31537;SDS011;18147;51.952;6.146;2023-04-15T16:25:17;10.70;;;2.03;;
31537;SDS011;18147;51.952;6.146;2023-04-15T16:27:43;9.18;;;2.17;;
31537;SDS011;18147;51.952;6.146;2023-04-15T16:30:09;9.50;;;3.00;;
31537;SDS011;18147;51.952;6.146;2023-04-15T16:32:35;7.55;;;1.88;;
31537;SDS011;18147;51.952;6.146;2023-04-15T16:35:01;4.22;;;1.58;;
31537;SDS011;18147;51.952;6.146;2023-04-15T16:37:27;7.28;;;1.60;;
31537;SDS011;18147;51.952;6.146;2023-04-15T16:39:52;17.65;;;2.30;;
31537;SDS011;18147;51.952;6.146;2023-04-15T16:42:18;10.45;;;2.60;;
31537;SDS011;18147;51.952;6.146;2023-04-15T16:44:43;7.32;;;2.60;;
31537;SDS011;18147;51.952;6.146;2023-04-15T16:47:08;8.38;;;2.72;;
31537;SDS011;18147;51.952;6.146;2023-04-15T16:49:36;4.72;;;2.00;;
31537;SDS011;18147;51.952;6.146;2023-04-15T16:52:02;9.32;;;3.10;;
31537;SDS011;18147;51.952;6.146;2023-04-15T16:54:28;13.57;;;3.25;;
31537;SDS011;18147;51.952;6.146;2023-04-15T16:56:54;8.13;;;2.50;;
31537;SDS011;18147;51.952;6.146;2023-04-15T16:59:21;6.95;;;2.40;;
31537;SDS011;18147;51.952;6.146;2023-04-15T17:01:47;10.05;;;2.50;;
31537;SDS011;18147;51.952;6.146;2023-04-15T17:04:13;9.25;;;2.63;;
31537;SDS011;18147;51.952;6.146;2023-04-15T17:06:38;7.20;;;2.28;;
31537;SDS011;18147;51.952;6.146;2023-04-15T17:09:04;9.52;;;2.45;;
31537;SDS011;18147;51.952;6.146;2023-04-15T17:11:30;10.20;;;3.35;;
31537;SDS011;18147;51.952;6.146;2023-04-15T17:13:56;16.17;;;2.65;;
31537;SDS011;18147;51.952;6.146;2023-04-15T17:16:21;16.63;;;4.13;;
31537;SDS011;18147;51.952;6.146;2023-04-15T17:18:47;12.23;;;2.35;;
31537;SDS011;18147;51.952;6.146;2023-04-15T17:21:14;7.75;;;2.78;;
31537;SDS011;18147;51.952;6.146;2023-04-15T17:23:40;6.32;;;2.97;;
31537;SDS011;18147;51.952;6.146;2023-04-15T17:26:06;12.82;;;4.05;;
31537;SDS011;18147;51.952;6.146;2023-04-15T17:28:32;15.23;;;5.53;;
31537;SDS011;18147;51.952;6.146;2023-04-15T17:30:57;17.75;;;6.47;;
31537;SDS011;18147;51.952;6.146;2023-04-15T17:33:23;16.13;;;6.10;;
31537;SDS011;18147;51.952;6.146;2023-04-15T17:35:48;16.48;;;5.22;;